Track Макейчик Наталья

Time Latitude Longitude Accuracy (66% radius in meters) Altitude (meters) Speed (km/hour) Bearing (degrees) Battery (%) GPS flag
10:18:54 44.558989 38.197396 6 88.70123288066 0.20196412503719 220.40502929688 86 1 delete
10:18:45 44.558993 38.197430 12 90.016485154659 1.2626286745071 310.62673950195 86 1 delete
10:18:42 44.558993 38.197453 8 90.613642710417 1.4421254396439 208.42774963379 86 1 delete
10:18:39 44.559016 38.197486 8 91.214532267962 1.6178237199783 213.24342346191 86 1 delete
10:18:36 44.559051 38.197545 6 91.90551125371 1.7908462285995 196.20748901367 86 1 delete
10:18:33 44.559124 38.197569 8 92.54696609941 1.8005912303925 200.90548706055 86 1 delete
10:18:30 44.559184 38.197605 12 93.247706663686 1.7338229417801 205.22116088867 86 1 delete
10:18:27 44.559243 38.197661 8 93.889192715238 1.6985770463943 199.96357727051 86 1 delete
10:18:24 44.559301 38.197704 8 94.472960397795 1.7076116800308 188.91137695312 86 1 delete
10:18:21 44.559358 38.197716 8 94.868679093519 1.6999408006668 176.69236755371 86 1 delete
10:18:18 44.559432 38.197713 8 95.033297698213 1.7096619606018 180.77816772461 86 1 delete
10:18:12 44.559520 38.197717 8 95.468229508815 1.9969934225082 179.70863342285 86 1 delete
10:18:06 44.559601 38.197761 8 95.950550876193 2.0847101211548 221.35527038574 86 1 delete
10:18:03 44.559663 38.197817 8 96.200621095875 2.0254409313202 203.8293762207 86 1 delete
10:18:00 44.559708 38.197860 8 96.445428170122 2.0436980724335 200.23428344727 86 1 delete
10:17:57 44.559762 38.197908 8 96.603354119882 1.9991685152054 212.30601501465 86 1 delete
10:17:55 44.559827 38.197970 8 96.849190182051 1.9364085197449 210.18060302734 86 1 delete
10:17:52 44.559892 38.198050 12 97.134356771296 1.8820852041245 233.87358093262 86 1 delete
10:17:49 44.559979 38.198106 8 97.369268303541 1.8287969827652 183.99150085449 86 1 delete
10:17:46 44.560043 38.198106 8 97.622519898889 1.7708727121353 187.21734619141 86 1 delete
10:17:43 44.560089 38.198116 12 97.642580995407 1.7509033679962 212.71244812012 86 1 delete
10:17:40 44.560149 38.198156 8 97.67824179228 1.7432045936584 203.23335266113 86 1 delete
10:17:37 44.560212 38.198208 8 97.598106412794 1.7840797901154 198.0682220459 86 1 delete
10:17:34 44.560267 38.198216 24 97.587571649751 1.7578731775284 180.81112670898 86 1 delete
10:17:31 44.560322 38.198255 8 98.162206416097 0.4148984849453 238.19035339355 86 1 delete
10:17:22 44.560311 38.198299 8 101.34960561521 0.82064437866211 345.02032470703 86 1 delete
10:17:19 44.560277 38.198307 16 102.37616572432 0.52089756727219 349.07949829102 86 1 delete
10:17:16 44.560269 38.198336 8 103.19167042104 0.60663366317749 329.07717895508 86 1 delete
10:17:10 44.560275 38.198402 16 104.0070039024 1.0081992149353 237.08938598633 86 1 delete
10:17:04 44.560340 38.198455 8 104.19742434476 0.84310871362686 224.71881103516 86 1 delete
10:16:58 44.560362 38.198508 12 105.11244032681 0.57307714223862 259.0595703125 86 1 delete
10:16:55 44.560363 38.198538 8 105.42907613891 0.6322026848793 277.84625244141 86 1 delete
10:16:49 44.560346 38.198611 8 106.03995201019 0.46961119771004 268.47622680664 86 1 delete
10:16:46 44.560355 38.198635 8 106.39581386122 0.58196973800659 325.49761962891 86 1 delete
10:16:40 44.560343 38.198690 12 107.15642464797 0.96302431821823 321.18634033203 86 1 delete
10:16:34 44.560319 38.198785 8 107.60776123063 0.82819187641144 251.70199584961 86 1 delete
10:16:28 44.560331 38.198847 8 108.53489933024 0.65989470481873 270.54455566406 86 1 delete
10:16:22 44.560349 38.198877 8 109.67937937701 0.9518010020256 302.50354003906 86 1 delete
10:16:19 44.560336 38.198919 8 110.47463260487 0.64490270614624 301.93704223633 86 1 delete
10:16:10 44.560358 38.198999 8 111.57660204966 1.228497505188 259.8117980957 86 1 delete
10:16:04 44.560373 38.199085 12 112.28515360922 1.4901769161224 272.33233642578 86 1 delete
10:16:01 44.560382 38.199146 8 112.80722954284 1.314066529274 196.89422607422 86 1 delete
10:15:52 44.560409 38.199175 16 115.11507871492 0.17610508203506 309.56057739258 86 1 delete
10:15:49 44.560469 38.199220 12 115.42196837073 0.35395595431328 309.56057739258 86 1 delete
10:15:43 44.560469 38.199295 16 117.2952469563 0.76652264595032 240.40406799316 86 1 delete
10:15:37 44.560515 38.199342 12 118.15372244853 0.93596184253693 196.17582702637 86 1 delete
10:15:34 44.560550 38.199386 8 118.29972689022 0.94505739212036 226.89706420898 86 1 delete
10:15:28 44.560624 38.199374 8 118.79833292128 0.75790768861771 162.24728393555 86 1 delete
10:15:25 44.560648 38.199363 12 118.90045382482 0.90055161714554 108.47581481934 86 1 delete
10:15:22 44.560676 38.199349 8 118.93445697747 0.75178587436676 140.7474822998 86 1 delete